createdAt,value
2022-09-30T00:00:03.332Z,1000.24
2022-09-30T00:01:03.239Z,1000.21
2022-09-30T00:02:03.348Z,1000.21
2022-09-30T00:03:03.273Z,1000.24
2022-09-30T00:04:03.215Z,1000.23
2022-09-30T00:05:03.213Z,1000.21
2022-09-30T00:06:07.833Z,1000.26
2022-09-30T00:07:04.177Z,1000.27
2022-09-30T00:08:03.172Z,1000.25
2022-09-30T00:09:03.188Z,1000.26
2022-09-30T00:10:03.155Z,1000.31
2022-09-30T00:11:03.159Z,1000.32
2022-09-30T00:12:03.140Z,1000.31
2022-09-30T00:13:03.114Z,1000.36
2022-09-30T00:14:03.110Z,1000.28
2022-09-30T00:15:03.100Z,1000.30
2022-09-30T00:16:03.170Z,1000.29
2022-09-30T00:17:03.070Z,1000.32
2022-09-30T00:18:03.066Z,1000.32
2022-09-30T00:19:03.050Z,1000.36
2022-09-30T00:20:03.071Z,1000.35
2022-09-30T00:21:03.030Z,1000.35
2022-09-30T00:22:03.024Z,1000.38
2022-09-30T00:23:03.015Z,1000.37
2022-09-30T00:24:02.995Z,1000.39
2022-09-30T00:25:03.003Z,1000.38
2022-09-30T00:26:02.975Z,1000.41
2022-09-30T00:27:03.000Z,1000.41
2022-09-30T00:28:02.950Z,1000.40
2022-09-30T00:29:02.934Z,1000.41
2022-09-30T00:30:02.931Z,1000.42
2022-09-30T00:31:03.003Z,1000.45
2022-09-30T00:32:02.919Z,1000.50
2022-09-30T00:33:02.906Z,1000.50
2022-09-30T00:34:02.893Z,1000.52
2022-09-30T00:35:02.871Z,1000.51
2022-09-30T00:36:02.857Z,1000.51
2022-09-30T00:37:02.851Z,1000.54
2022-09-30T00:38:02.842Z,1000.51
2022-09-30T00:39:02.846Z,1000.54
2022-09-30T00:40:02.825Z,1000.51
2022-09-30T00:41:02.805Z,1000.54
2022-09-30T00:42:02.806Z,1000.54
2022-09-30T00:43:02.807Z,1000.56
2022-09-30T00:44:02.776Z,1000.56
2022-09-30T00:45:02.764Z,1000.55
2022-09-30T00:46:02.741Z,1000.55
2022-09-30T00:47:02.778Z,1000.57
2022-09-30T00:48:02.721Z,1000.55
2022-09-30T00:49:02.707Z,1000.57
2022-09-30T00:50:02.708Z,1000.55
2022-09-30T00:51:02.697Z,1000.59
2022-09-30T00:52:02.677Z,1000.58
2022-09-30T00:53:02.678Z,1000.57
2022-09-30T00:54:02.663Z,1000.60
2022-09-30T00:55:02.645Z,1000.63
2022-09-30T00:56:02.660Z,1000.59
2022-09-30T00:57:02.629Z,1000.63
2022-09-30T00:58:02.616Z,1000.65
2022-09-30T00:59:02.630Z,1000.64
2022-09-30T01:00:02.586Z,1000.63
2022-09-30T01:01:02.649Z,1000.66
2022-09-30T01:02:02.698Z,1000.64
2022-09-30T01:03:02.559Z,1000.62
2022-09-30T01:04:02.566Z,1000.65
2022-09-30T01:05:02.539Z,1000.61
2022-09-30T01:06:02.529Z,1000.62
2022-09-30T01:07:02.508Z,1000.65
2022-09-30T01:08:02.509Z,1000.66
2022-09-30T01:09:02.530Z,1000.65
2022-09-30T01:10:02.499Z,1000.65
2022-09-30T01:11:07.883Z,1000.65
2022-09-30T01:12:03.469Z,1000.69
2022-09-30T01:13:02.448Z,1000.65
2022-09-30T01:14:02.438Z,1000.70
2022-09-30T01:15:02.444Z,1000.74
2022-09-30T01:16:02.525Z,1000.69
2022-09-30T01:17:02.406Z,1000.65
2022-09-30T01:18:02.424Z,1000.74
2022-09-30T01:19:02.375Z,1000.63
2022-09-30T01:20:02.366Z,1000.67
2022-09-30T01:21:02.354Z,1000.67
2022-09-30T01:22:02.346Z,1000.65
2022-09-30T01:23:02.339Z,1000.69
2022-09-30T01:24:02.331Z,1000.68
2022-09-30T01:25:02.314Z,1000.69
2022-09-30T01:26:02.307Z,1000.73
2022-09-30T01:27:02.295Z,1000.72
2022-09-30T01:28:02.290Z,1000.70
2022-09-30T01:29:02.272Z,1000.68
2022-09-30T01:30:02.257Z,1000.73
2022-09-30T01:31:02.357Z,1000.74
2022-09-30T01:32:02.249Z,1000.69
2022-09-30T01:33:02.226Z,1000.73
2022-09-30T01:34:02.226Z,1000.76
2022-09-30T01:35:02.216Z,1000.78
2022-09-30T01:36:02.194Z,1000.79
2022-09-30T01:37:02.234Z,1000.80
2022-09-30T01:38:02.175Z,1000.82
2022-09-30T01:39:02.171Z,1000.81
2022-09-30T01:40:02.187Z,1000.82
2022-09-30T01:41:02.138Z,1000.78
2022-09-30T01:42:02.120Z,1000.80
2022-09-30T01:43:02.113Z,1000.82
2022-09-30T01:44:02.105Z,1000.86
2022-09-30T01:45:02.099Z,1000.88
2022-09-30T01:46:02.096Z,1000.93
2022-09-30T01:47:02.160Z,1000.96
2022-09-30T01:48:02.066Z,1000.95
2022-09-30T01:49:02.054Z,1000.99
2022-09-30T01:50:02.048Z,1001.01
2022-09-30T01:51:02.025Z,1001.02
2022-09-30T01:52:02.021Z,1000.95
2022-09-30T01:53:02.011Z,1000.96
2022-09-30T01:54:01.994Z,1001.00
2022-09-30T01:55:01.976Z,1001.02
2022-09-30T01:56:01.965Z,1001.00
2022-09-30T01:57:01.959Z,1001.01
2022-09-30T01:58:01.954Z,1000.98
2022-09-30T01:59:01.947Z,1001.00
2022-09-30T02:00:01.929Z,1000.94
2022-09-30T02:01:02.026Z,1000.98
2022-09-30T02:02:02.023Z,1000.97
2022-09-30T02:03:01.938Z,1000.91
2022-09-30T02:04:01.882Z,1000.94
2022-09-30T02:05:01.869Z,1000.91
2022-09-30T02:06:01.866Z,1000.91
2022-09-30T02:07:01.847Z,1000.88
2022-09-30T02:08:01.831Z,1000.90
2022-09-30T02:09:01.887Z,1000.88
2022-09-30T02:10:01.820Z,1000.87
2022-09-30T02:11:01.818Z,1000.86
2022-09-30T02:12:01.812Z,1000.88
2022-09-30T02:13:01.783Z,1000.90
2022-09-30T02:14:01.770Z,1000.90
2022-09-30T02:15:01.756Z,1000.94
2022-09-30T02:16:01.794Z,1000.94
2022-09-30T02:17:01.737Z,1000.97
2022-09-30T02:18:01.731Z,1000.98
2022-09-30T02:19:01.761Z,1001.00
2022-09-30T02:20:01.709Z,1001.01
2022-09-30T02:21:01.698Z,1000.99
2022-09-30T02:22:01.677Z,1000.99
2022-09-30T02:23:01.667Z,1000.94
2022-09-30T02:24:01.676Z,1000.94
2022-09-30T02:25:01.642Z,1000.95
2022-09-30T02:26:01.645Z,1000.95
2022-09-30T02:27:01.627Z,1000.95
2022-09-30T02:28:01.616Z,1000.96
2022-09-30T02:29:01.611Z,1000.94
2022-09-30T02:30:01.602Z,1000.92
2022-09-30T02:31:01.658Z,1000.90
2022-09-30T02:32:01.576Z,1000.97
2022-09-30T02:33:01.565Z,1000.94
2022-09-30T02:34:01.551Z,1000.94
2022-09-30T02:35:01.570Z,1000.95
2022-09-30T02:36:01.533Z,1000.97
2022-09-30T02:37:01.520Z,1000.89
2022-09-30T02:38:01.516Z,1000.91
2022-09-30T02:39:01.486Z,1000.88
2022-09-30T02:40:01.488Z,1000.90
2022-09-30T02:41:01.469Z,1000.93
2022-09-30T02:42:01.464Z,1000.86
2022-09-30T02:43:01.469Z,1000.86
2022-09-30T02:44:01.437Z,1000.82
2022-09-30T02:45:01.429Z,1000.88
2022-09-30T02:46:01.413Z,1000.78
2022-09-30T02:47:01.511Z,1000.81
2022-09-30T02:48:01.395Z,1000.80
2022-09-30T02:49:01.375Z,1000.80
2022-09-30T02:50:01.376Z,1000.76
2022-09-30T02:51:01.431Z,1000.78
2022-09-30T02:52:01.357Z,1000.77
2022-09-30T02:53:01.358Z,1000.77
2022-09-30T02:54:01.317Z,1000.81
2022-09-30T02:55:01.345Z,1000.80
2022-09-30T02:56:01.303Z,1000.84
2022-09-30T02:57:01.289Z,1000.87
2022-09-30T02:58:01.274Z,1000.85
2022-09-30T02:59:01.274Z,1000.86
2022-09-30T03:00:03.427Z,1000.85
2022-09-30T03:01:01.354Z,1000.87
2022-09-30T03:02:01.333Z,1000.85
2022-09-30T03:03:01.229Z,1000.88
2022-09-30T03:04:01.205Z,1000.83
2022-09-30T03:05:01.207Z,1000.89
2022-09-30T03:06:01.183Z,1000.92
2022-09-30T03:07:01.249Z,1000.92
2022-09-30T03:08:01.162Z,1000.89
2022-09-30T03:09:01.198Z,1000.95
2022-09-30T03:10:01.154Z,1000.99
2022-09-30T03:11:01.145Z,1000.95
2022-09-30T03:12:01.122Z,1001.00
2022-09-30T03:13:01.113Z,1000.98
2022-09-30T03:14:01.098Z,1000.97
2022-09-30T03:15:01.094Z,1001.00
2022-09-30T03:16:01.157Z,1000.96
2022-09-30T03:17:01.090Z,1001.00
2022-09-30T03:18:01.059Z,1000.99
2022-09-30T03:19:01.060Z,1001.01
2022-09-30T03:20:01.030Z,1000.97
2022-09-30T03:21:01.027Z,1001.00
2022-09-30T03:22:01.009Z,1001.02
2022-09-30T03:23:01.027Z,1001.07
2022-09-30T03:24:00.981Z,1001.08
2022-09-30T03:25:00.976Z,1001.16
2022-09-30T03:26:00.970Z,1001.12
2022-09-30T03:27:00.968Z,1001.15
2022-09-30T03:28:00.950Z,1001.20
2022-09-30T03:29:00.948Z,1001.22
2022-09-30T03:30:00.920Z,1001.20
2022-09-30T03:31:00.953Z,1001.21
2022-09-30T03:32:00.905Z,1001.26
2022-09-30T03:33:00.885Z,1001.24
2022-09-30T03:34:00.889Z,1001.31
2022-09-30T03:35:00.863Z,1001.24
2022-09-30T03:36:00.877Z,1001.29
2022-09-30T03:37:03.978Z,1001.26
2022-09-30T03:38:00.838Z,1001.31
2022-09-30T03:39:00.838Z,1001.36
2022-09-30T03:40:00.826Z,1001.38
2022-09-30T03:41:00.800Z,1001.40
2022-09-30T03:42:00.807Z,1001.45
2022-09-30T03:43:00.793Z,1001.41
2022-09-30T03:44:00.773Z,1001.41
2022-09-30T03:45:00.755Z,1001.36
2022-09-30T03:46:00.740Z,1001.34
2022-09-30T03:47:00.744Z,1001.34
2022-09-30T03:48:00.720Z,1001.32
2022-09-30T03:49:00.729Z,1001.32
2022-09-30T03:50:00.702Z,1001.29
2022-09-30T03:51:00.715Z,1001.32
2022-09-30T03:52:00.687Z,1001.33
2022-09-30T03:53:00.667Z,1001.36
2022-09-30T03:54:00.652Z,1001.39
2022-09-30T03:55:00.661Z,1001.36
2022-09-30T03:56:00.646Z,1001.41
2022-09-30T03:57:00.629Z,1001.37
2022-09-30T03:58:00.612Z,1001.44
2022-09-30T03:59:00.595Z,1001.39
2022-09-30T04:00:00.590Z,1001.41
2022-09-30T04:01:00.633Z,1001.43
2022-09-30T04:02:00.662Z,1001.41
2022-09-30T04:03:00.567Z,1001.45
2022-09-30T04:04:00.547Z,1001.48
2022-09-30T04:05:00.537Z,1001.42
2022-09-30T04:06:00.527Z,1001.43
2022-09-30T04:07:00.521Z,1001.47
2022-09-30T04:08:00.508Z,1001.53
2022-09-30T04:09:00.524Z,1001.54
2022-09-30T04:10:00.484Z,1001.59
2022-09-30T04:11:00.490Z,1001.59
2022-09-30T04:12:00.448Z,1001.62
2022-09-30T04:13:00.443Z,1001.67
2022-09-30T04:14:00.431Z,1001.64
2022-09-30T04:15:00.422Z,1001.72
2022-09-30T04:16:00.464Z,1001.68
2022-09-30T04:17:00.405Z,1001.71
2022-09-30T04:18:00.387Z,1001.68
2022-09-30T04:19:00.382Z,1001.75
2022-09-30T04:20:00.366Z,1001.74
2022-09-30T04:21:00.376Z,1001.73
2022-09-30T04:22:00.346Z,1001.78
2022-09-30T04:23:00.331Z,1001.79
2022-09-30T04:24:00.343Z,1001.81
2022-09-30T04:25:00.319Z,1001.82
2022-09-30T04:26:00.300Z,1001.85
2022-09-30T04:27:00.303Z,1001.85
2022-09-30T04:28:00.288Z,1001.87
2022-09-30T04:29:00.278Z,1001.85
2022-09-30T04:30:00.251Z,1001.85
2022-09-30T04:31:00.242Z,1001.87
2022-09-30T04:32:00.224Z,1001.90
2022-09-30T04:33:00.222Z,1001.89
2022-09-30T04:34:00.208Z,1001.92
2022-09-30T04:35:00.203Z,1001.94
2022-09-30T04:36:00.198Z,1001.92
2022-09-30T04:37:00.182Z,1001.97
2022-09-30T04:38:00.159Z,1001.98
2022-09-30T04:39:00.155Z,1002.01
2022-09-30T04:40:00.140Z,1002.00
2022-09-30T04:41:00.127Z,1001.98
2022-09-30T04:42:00.139Z,1002.00
2022-09-30T04:43:00.135Z,1001.99
2022-09-30T04:44:00.090Z,1002.02
2022-09-30T04:45:00.086Z,1002.00
2022-09-30T04:46:00.179Z,1002.03
2022-09-30T04:47:00.060Z,1002.01
2022-09-30T04:48:00.078Z,1001.97
2022-09-30T04:49:00.047Z,1001.97
2022-09-30T04:50:00.035Z,1001.99
2022-09-30T04:51:00.042Z,1002.03
2022-09-30T04:52:00.012Z,1001.99
2022-09-30T04:52:59.991Z,1002.04
2022-09-30T04:53:59.991Z,1002.01
2022-09-30T04:54:59.969Z,1002.07
2022-09-30T04:55:59.961Z,1002.11
2022-09-30T04:56:59.954Z,1002.00
2022-09-30T04:57:59.949Z,1002.04
2022-09-30T04:58:59.950Z,1002.04
2022-09-30T04:59:59.912Z,1002.04
2022-09-30T05:00:59.959Z,1002.04
2022-09-30T05:02:00.013Z,1002.04
2022-09-30T05:02:59.893Z,1002.05
2022-09-30T05:03:59.890Z,1002.04
2022-09-30T05:04:59.857Z,1002.07
2022-09-30T05:05:59.863Z,1002.06
2022-09-30T05:06:59.978Z,1002.04
2022-09-30T05:07:59.840Z,1002.09
2022-09-30T05:08:59.875Z,1002.08
2022-09-30T05:09:59.831Z,1002.10
2022-09-30T05:10:59.794Z,1002.15
2022-09-30T05:11:59.782Z,1002.14
2022-09-30T05:12:59.823Z,1002.13
2022-09-30T05:13:59.767Z,1002.15
2022-09-30T05:14:59.766Z,1002.15
2022-09-30T05:15:59.813Z,1002.15
2022-09-30T05:16:59.744Z,1002.17
2022-09-30T05:17:59.733Z,1002.15
2022-09-30T05:18:59.719Z,1002.16
2022-09-30T05:19:59.704Z,1002.13
2022-09-30T05:20:59.687Z,1002.15
2022-09-30T05:21:59.704Z,1002.13
2022-09-30T05:22:59.676Z,1002.18
2022-09-30T05:23:59.663Z,1002.15
2022-09-30T05:24:59.642Z,1002.20
2022-09-30T05:25:59.630Z,1002.20
2022-09-30T05:26:59.622Z,1002.23
2022-09-30T05:27:59.614Z,1002.19
2022-09-30T05:28:59.608Z,1002.18
2022-09-30T05:30:00.411Z,1002.18
2022-09-30T05:30:59.683Z,1002.18
2022-09-30T05:31:59.675Z,1002.23
2022-09-30T05:32:59.552Z,1002.24
2022-09-30T05:33:59.550Z,1002.27
2022-09-30T05:34:59.544Z,1002.21
2022-09-30T05:35:59.508Z,1002.33
2022-09-30T05:37:00.396Z,1002.25
2022-09-30T05:37:59.529Z,1002.28
2022-09-30T05:38:59.502Z,1002.31
2022-09-30T05:39:59.482Z,1002.31
2022-09-30T05:41:00.426Z,1002.30
2022-09-30T05:41:59.485Z,1002.31
2022-09-30T05:42:59.466Z,1002.34
2022-09-30T05:43:59.452Z,1002.32
2022-09-30T05:44:59.414Z,1002.31
2022-09-30T05:45:59.428Z,1002.31
2022-09-30T05:46:59.452Z,1002.36
2022-09-30T05:47:59.397Z,1002.37
2022-09-30T05:48:59.432Z,1002.45
2022-09-30T05:49:59.353Z,1002.43
2022-09-30T05:50:59.401Z,1002.45
2022-09-30T05:51:59.344Z,1002.43
2022-09-30T05:52:59.341Z,1002.41
2022-09-30T05:53:59.315Z,1002.46
2022-09-30T05:54:59.445Z,1002.44
2022-09-30T05:55:59.303Z,1002.42
2022-09-30T05:56:59.319Z,1002.43
2022-09-30T05:57:59.266Z,1002.47
2022-09-30T05:58:59.263Z,1002.44
2022-09-30T05:59:59.258Z,1002.46
2022-09-30T06:01:05.581Z,1002.44
2022-09-30T06:02:00.393Z,1002.47
2022-09-30T06:02:59.354Z,1002.51
2022-09-30T06:03:59.226Z,1002.50
2022-09-30T06:04:59.198Z,1002.55
2022-09-30T06:05:59.186Z,1002.58
2022-09-30T06:06:59.256Z,1002.60
2022-09-30T06:07:59.158Z,1002.61
2022-09-30T06:08:59.202Z,1002.64
2022-09-30T06:09:59.168Z,1002.63
2022-09-30T06:10:59.131Z,1002.65
2022-09-30T06:11:59.916Z,1002.63
2022-09-30T06:12:59.105Z,1002.73
2022-09-30T06:13:59.141Z,1002.73
2022-09-30T06:14:59.171Z,1002.72
2022-09-30T06:15:59.193Z,1002.74
2022-09-30T06:16:59.434Z,1002.76
2022-09-30T06:17:59.079Z,1002.77
2022-09-30T06:18:59.066Z,1002.76
2022-09-30T06:19:59.038Z,1002.78
2022-09-30T06:20:59.030Z,1002.85
2022-09-30T06:21:59.006Z,1002.81
2022-09-30T06:22:58.984Z,1002.83
2022-09-30T06:23:59.018Z,1002.87
2022-09-30T06:24:58.980Z,1002.84
2022-09-30T06:25:58.978Z,1002.87
2022-09-30T06:26:58.945Z,1002.90
2022-09-30T06:27:58.951Z,1002.93
2022-09-30T06:28:58.949Z,1002.97
2022-09-30T06:29:58.942Z,1002.95
2022-09-30T06:30:58.902Z,1003.00
2022-09-30T06:31:58.973Z,1003.05
2022-09-30T06:32:58.894Z,1003.04
2022-09-30T06:33:58.924Z,1003.08
2022-09-30T06:34:58.886Z,1003.15
2022-09-30T06:35:58.854Z,1003.08
2022-09-30T06:36:58.827Z,1003.16
2022-09-30T06:37:58.831Z,1003.15
2022-09-30T06:38:58.854Z,1003.15
2022-09-30T06:39:58.817Z,1003.18
2022-09-30T06:40:58.795Z,1003.20
2022-09-30T06:41:58.860Z,1003.21
2022-09-30T06:42:58.790Z,1003.21
2022-09-30T06:44:10.536Z,1003.22
2022-09-30T06:45:00.425Z,1003.20
2022-09-30T06:46:10.633Z,1003.20
2022-09-30T06:46:59.840Z,1003.18
2022-09-30T06:48:00.673Z,1003.19
2022-09-30T06:49:13.520Z,1003.17
2022-09-30T06:49:59.701Z,1003.17
2022-09-30T06:51:01.858Z,1003.16
2022-09-30T06:51:58.683Z,1003.14
2022-09-30T06:52:58.713Z,1003.12
2022-09-30T06:53:58.645Z,1003.14
2022-09-30T06:54:58.638Z,1003.15
2022-09-30T06:55:58.618Z,1003.17
2022-09-30T06:56:58.619Z,1003.14
2022-09-30T06:57:58.616Z,1003.16
2022-09-30T06:58:58.587Z,1003.11
2022-09-30T06:59:58.658Z,1003.07
2022-09-30T07:00:58.647Z,1003.10
2022-09-30T07:01:58.613Z,1003.16
2022-09-30T07:02:58.575Z,1003.14
2022-09-30T07:03:58.552Z,1003.15
2022-09-30T07:04:58.590Z,1003.17
2022-09-30T07:05:58.508Z,1003.21
2022-09-30T07:06:58.593Z,1003.20
2022-09-30T07:07:58.516Z,1003.25
2022-09-30T07:08:58.577Z,1003.27
2022-09-30T07:09:59.902Z,1003.24
2022-09-30T07:10:58.448Z,1003.24
2022-09-30T07:11:58.461Z,1003.24
2022-09-30T07:12:58.460Z,1003.26
2022-09-30T07:13:58.429Z,1003.23
2022-09-30T07:14:58.401Z,1003.29
2022-09-30T07:15:58.514Z,1003.25
2022-09-30T07:16:58.403Z,1003.28
2022-09-30T07:17:58.373Z,1003.30
2022-09-30T07:18:58.483Z,1003.26
2022-09-30T07:19:58.397Z,1003.34
2022-09-30T07:20:58.364Z,1003.30
2022-09-30T07:21:58.908Z,1003.39
2022-09-30T07:22:58.394Z,1003.41
2022-09-30T07:23:58.316Z,1003.36
2022-09-30T07:24:58.297Z,1003.39
2022-09-30T07:25:58.317Z,1003.43
2022-09-30T07:26:58.311Z,1003.40
2022-09-30T07:27:58.269Z,1003.37
2022-09-30T07:28:58.254Z,1003.43
2022-09-30T07:30:08.789Z,1003.40
2022-09-30T07:31:20.089Z,1003.38
2022-09-30T07:31:59.300Z,1003.40
2022-09-30T07:32:58.220Z,1003.44
2022-09-30T07:33:58.211Z,1003.42
2022-09-30T07:34:58.215Z,1003.44
2022-09-30T07:35:58.235Z,1003.47
2022-09-30T07:36:58.184Z,1003.51
2022-09-30T07:37:58.180Z,1003.47
2022-09-30T07:38:58.159Z,1003.48
2022-09-30T07:39:58.162Z,1003.48
2022-09-30T07:40:58.139Z,1003.46
2022-09-30T07:41:59.433Z,1003.48
2022-09-30T07:42:58.096Z,1003.44
2022-09-30T07:43:58.083Z,1003.44
2022-09-30T07:44:58.098Z,1003.46
2022-09-30T07:45:58.112Z,1003.44
2022-09-30T07:46:58.136Z,1003.44
2022-09-30T07:47:58.056Z,1003.45
2022-09-30T07:48:58.061Z,1003.47
2022-09-30T07:49:58.044Z,1003.51
2022-09-30T07:50:58.041Z,1003.51
2022-09-30T07:51:58.005Z,1003.54
2022-09-30T07:52:57.996Z,1003.55
2022-09-30T07:53:58.031Z,1003.58
2022-09-30T07:54:58.032Z,1003.63
2022-09-30T07:55:57.960Z,1003.66
2022-09-30T07:57:09.643Z,1003.67
2022-09-30T07:57:58.934Z,1003.71
2022-09-30T07:58:57.945Z,1003.74
2022-09-30T07:59:57.958Z,1003.68
2022-09-30T08:00:57.986Z,1003.64
2022-09-30T08:01:57.931Z,1003.62
2022-09-30T08:02:57.932Z,1003.62
2022-09-30T08:03:57.882Z,1003.64
2022-09-30T08:04:57.945Z,1003.65
2022-09-30T08:05:58.392Z,1003.66
2022-09-30T08:06:58.034Z,1003.74
2022-09-30T08:07:57.825Z,1003.71
2022-09-30T08:08:57.835Z,1003.75
2022-09-30T08:09:57.876Z,1003.77
2022-09-30T08:10:58.432Z,1003.76
2022-09-30T08:11:57.790Z,1003.78
2022-09-30T08:12:59.942Z,1003.77
2022-09-30T08:13:57.796Z,1003.70
2022-09-30T08:14:57.758Z,1003.72
2022-09-30T08:15:57.740Z,1003.74
2022-09-30T08:16:57.804Z,1003.79
2022-09-30T08:17:57.741Z,1003.76
2022-09-30T08:18:57.735Z,1003.73
2022-09-30T08:19:57.766Z,1003.76
2022-09-30T08:20:57.672Z,1003.76
2022-09-30T08:21:57.904Z,1003.75
2022-09-30T08:22:57.676Z,1003.83
2022-09-30T08:23:57.946Z,1003.82
2022-09-30T08:24:57.715Z,1003.84
2022-09-30T08:25:57.627Z,1003.83
2022-09-30T08:26:57.715Z,1003.84
2022-09-30T08:27:57.610Z,1003.87
2022-09-30T08:28:57.622Z,1003.83
2022-09-30T08:30:01.158Z,1003.89
2022-09-30T08:30:58.598Z,1003.88
2022-09-30T08:31:57.618Z,1003.91
2022-09-30T08:32:57.581Z,1003.91
2022-09-30T08:33:57.551Z,1003.84
2022-09-30T08:34:57.537Z,1003.88
2022-09-30T08:35:57.515Z,1003.86
2022-09-30T08:36:59.691Z,1003.87
2022-09-30T08:37:57.544Z,1003.84
2022-09-30T08:38:57.502Z,1003.83
2022-09-30T08:39:57.481Z,1003.80
2022-09-30T08:40:57.464Z,1003.83
2022-09-30T08:41:59.766Z,1003.79
2022-09-30T08:42:57.878Z,1003.76
2022-09-30T08:43:57.433Z,1003.76
2022-09-30T08:44:57.479Z,1003.75
2022-09-30T08:45:57.583Z,1003.75
2022-09-30T08:46:58.494Z,1003.73
2022-09-30T08:47:57.435Z,1003.74
2022-09-30T08:48:59.887Z,1003.74
2022-09-30T08:49:59.979Z,1003.73
2022-09-30T08:50:57.344Z,1003.70
2022-09-30T08:51:57.924Z,1003.71
2022-09-30T08:52:59.938Z,1003.73
2022-09-30T08:53:57.318Z,1003.69
2022-09-30T08:54:57.324Z,1003.68
2022-09-30T08:55:57.346Z,1003.65
2022-09-30T08:56:57.293Z,1003.68
2022-09-30T08:57:57.331Z,1003.71
2022-09-30T08:58:57.511Z,1003.69
2022-09-30T08:59:57.244Z,1003.73
2022-09-30T09:00:57.361Z,1003.68
2022-09-30T09:01:57.375Z,1003.60
2022-09-30T09:02:57.285Z,1003.64
2022-09-30T09:03:57.195Z,1003.67
2022-09-30T09:04:57.186Z,1003.64
2022-09-30T09:05:57.200Z,1003.70
2022-09-30T09:06:57.193Z,1003.65
2022-09-30T09:07:57.164Z,1003.64
2022-09-30T09:08:57.166Z,1003.67
2022-09-30T09:09:57.131Z,1003.68
2022-09-30T09:10:57.130Z,1003.69
2022-09-30T09:11:57.187Z,1003.69
2022-09-30T09:12:58.128Z,1003.66
2022-09-30T09:13:57.082Z,1003.69
2022-09-30T09:14:57.132Z,1003.66
2022-09-30T09:15:57.078Z,1003.64
2022-09-30T09:16:57.106Z,1003.62
2022-09-30T09:18:18.799Z,1003.60
2022-09-30T09:18:58.034Z,1003.59
2022-09-30T09:19:57.101Z,1003.58
2022-09-30T09:20:57.049Z,1003.63
2022-09-30T09:22:01.955Z,1003.60
2022-09-30T09:22:56.995Z,1003.55
2022-09-30T09:23:57.891Z,1003.62
2022-09-30T09:24:56.993Z,1003.57
2022-09-30T09:25:56.979Z,1003.56
2022-09-30T09:26:57.890Z,1003.55
2022-09-30T09:27:57.525Z,1003.63
2022-09-30T09:28:57.912Z,1003.57
2022-09-30T09:29:56.953Z,1003.61
2022-09-30T09:30:57.489Z,1003.62
2022-09-30T09:31:56.925Z,1003.63
2022-09-30T09:32:56.919Z,1003.58
2022-09-30T09:33:56.892Z,1003.54
2022-09-30T09:34:58.424Z,1003.51
2022-09-30T09:35:56.855Z,1003.52
2022-09-30T09:36:56.828Z,1003.52
2022-09-30T09:37:56.852Z,1003.53
2022-09-30T09:38:56.844Z,1003.49
2022-09-30T09:40:01.705Z,1003.48
2022-09-30T09:40:58.044Z,1003.48
2022-09-30T09:41:56.773Z,1003.45
2022-09-30T09:42:57.426Z,1003.49
2022-09-30T09:43:56.795Z,1003.47
2022-09-30T09:44:56.763Z,1003.46
2022-09-30T09:45:56.800Z,1003.43
2022-09-30T09:46:56.760Z,1003.42
2022-09-30T09:47:56.732Z,1003.47
2022-09-30T09:48:56.745Z,1003.48
2022-09-30T09:49:57.544Z,1003.41
2022-09-30T09:50:56.679Z,1003.42
2022-09-30T09:51:56.702Z,1003.38
2022-09-30T09:52:56.717Z,1003.40
2022-09-30T09:53:56.647Z,1003.38
2022-09-30T09:54:56.708Z,1003.37
2022-09-30T09:55:56.643Z,1003.37
2022-09-30T09:56:56.607Z,1003.40
2022-09-30T09:57:56.587Z,1003.40
2022-09-30T09:58:56.590Z,1003.39
2022-09-30T09:59:56.760Z,1003.39
2022-09-30T10:00:56.608Z,1003.32
2022-09-30T10:01:56.579Z,1003.33
2022-09-30T10:02:56.583Z,1003.33
2022-09-30T10:03:56.523Z,1003.34
2022-09-30T10:04:56.544Z,1003.32
2022-09-30T10:05:56.526Z,1003.33
2022-09-30T10:06:56.941Z,1003.34
2022-09-30T10:07:56.489Z,1003.29
2022-09-30T10:08:56.565Z,1003.34
2022-09-30T10:09:56.470Z,1003.30
2022-09-30T10:10:56.516Z,1003.34
2022-09-30T10:11:56.455Z,1003.32
2022-09-30T10:12:56.428Z,1003.31
2022-09-30T10:13:56.446Z,1003.30
2022-09-30T10:14:56.466Z,1003.22
2022-09-30T10:15:56.457Z,1003.25
2022-09-30T10:16:56.371Z,1003.26
2022-09-30T10:17:56.373Z,1003.22
2022-09-30T10:18:56.412Z,1003.24
2022-09-30T10:19:56.348Z,1003.21
2022-09-30T10:20:56.352Z,1003.26
2022-09-30T10:21:57.460Z,1003.26
2022-09-30T10:22:56.318Z,1003.28
2022-09-30T10:23:56.316Z,1003.29
2022-09-30T10:24:56.411Z,1003.28
2022-09-30T10:25:56.332Z,1003.27
2022-09-30T10:26:56.292Z,1003.22
2022-09-30T10:27:56.393Z,1003.19
2022-09-30T10:28:56.263Z,1003.23
2022-09-30T10:29:56.246Z,1003.22
2022-09-30T10:30:56.218Z,1003.23
2022-09-30T10:31:59.149Z,1003.24
2022-09-30T10:32:56.258Z,1003.22
2022-09-30T10:33:56.200Z,1003.23
2022-09-30T10:34:56.202Z,1003.19
2022-09-30T10:35:56.910Z,1003.22
2022-09-30T10:36:56.192Z,1003.21
2022-09-30T10:37:56.165Z,1003.21
2022-09-30T10:38:56.158Z,1003.18
2022-09-30T10:39:56.123Z,1003.22
2022-09-30T10:40:56.172Z,1003.24
2022-09-30T10:41:56.115Z,1003.23
2022-09-30T10:42:56.131Z,1003.16
2022-09-30T10:43:56.069Z,1003.15
2022-09-30T10:44:56.054Z,1003.11
2022-09-30T10:46:20.871Z,1003.11
2022-09-30T10:46:57.156Z,1003.07
2022-09-30T10:47:56.042Z,1003.07
2022-09-30T10:48:56.014Z,1003.06
2022-09-30T10:49:56.140Z,1003.08
2022-09-30T10:50:56.023Z,1003.06
2022-09-30T10:51:55.986Z,1003.02
2022-09-30T10:52:55.996Z,1003.06
2022-09-30T10:53:56.488Z,1003.07
2022-09-30T10:54:56.041Z,1003.06
2022-09-30T10:55:55.948Z,1003.04
2022-09-30T10:56:55.921Z,1003.03
2022-09-30T10:57:55.916Z,1003.05
2022-09-30T10:59:55.925Z,1003.04
2022-09-30T11:00:55.958Z,1003.10
2022-09-30T11:01:57.630Z,1003.05
2022-09-30T11:02:55.911Z,1003.07
2022-09-30T11:03:55.936Z,1003.10
2022-09-30T11:04:55.867Z,1003.03
2022-09-30T11:05:55.831Z,1003.04
2022-09-30T11:06:55.851Z,1002.96
2022-09-30T11:07:55.805Z,1002.99
2022-09-30T11:08:55.826Z,1002.99
2022-09-30T11:09:55.769Z,1002.98
2022-09-30T11:10:55.768Z,1002.94
2022-09-30T11:11:55.746Z,1002.93
2022-09-30T11:12:55.794Z,1002.91
2022-09-30T11:13:55.765Z,1002.94
2022-09-30T11:14:55.737Z,1002.86
2022-09-30T11:15:55.778Z,1002.85
2022-09-30T11:16:55.742Z,1002.80
2022-09-30T11:17:55.683Z,1002.79
2022-09-30T11:18:55.663Z,1002.86
2022-09-30T11:19:55.676Z,1002.84
2022-09-30T11:20:55.682Z,1002.86
2022-09-30T11:21:55.656Z,1002.86
2022-09-30T11:22:55.788Z,1002.86
2022-09-30T11:23:55.610Z,1002.89
2022-09-30T11:24:55.667Z,1002.91
2022-09-30T11:25:55.640Z,1002.88
2022-09-30T11:26:55.621Z,1002.89
2022-09-30T11:27:55.706Z,1002.86
2022-09-30T11:28:55.551Z,1002.83
2022-09-30T11:29:55.559Z,1002.90
2022-09-30T11:30:55.564Z,1002.86
2022-09-30T11:31:55.666Z,1002.90
2022-09-30T11:32:55.557Z,1002.88
2022-09-30T11:33:56.412Z,1002.96
2022-09-30T11:34:55.549Z,1002.91
2022-09-30T11:35:55.565Z,1002.89
2022-09-30T11:36:55.482Z,1002.91
2022-09-30T11:37:55.465Z,1002.94
2022-09-30T11:38:55.511Z,1002.99
2022-09-30T11:39:55.440Z,1003.02
2022-09-30T11:40:55.444Z,1003.03
2022-09-30T11:41:55.427Z,1003.04
2022-09-30T11:42:55.474Z,1003.01
2022-09-30T11:43:55.411Z,1002.96
2022-09-30T11:44:55.415Z,1002.94
2022-09-30T11:45:55.450Z,1002.95
2022-09-30T11:46:55.355Z,1002.95
2022-09-30T11:47:55.377Z,1003.00
2022-09-30T11:48:55.353Z,1002.97
2022-09-30T11:49:55.345Z,1003.03
2022-09-30T11:50:55.326Z,1003.03
2022-09-30T11:51:55.302Z,1003.06
2022-09-30T11:52:55.284Z,1002.96
2022-09-30T11:53:55.285Z,1003.05
2022-09-30T11:54:57.937Z,1003.04
2022-09-30T11:55:55.262Z,1003.04
2022-09-30T11:56:55.314Z,1003.01
2022-09-30T11:57:55.923Z,1003.05
2022-09-30T11:58:55.228Z,1003.08
2022-09-30T11:59:55.298Z,1003.08
2022-09-30T12:00:55.901Z,1003.08
2022-09-30T12:01:55.483Z,1003.08
2022-09-30T12:02:55.266Z,1003.05
2022-09-30T12:03:55.167Z,1003.03
2022-09-30T12:04:58.024Z,1003.04
2022-09-30T12:05:55.156Z,1003.04